Time;durP1;ratioP1;P1;durP2;ratioP2;P2;SDS_P1;SDS_P2;PMS_P1;PMS_P2;Temp;Humidity;BMP_temperature;BMP_pressure;BME280_temperature;BME280_humidity;BME280_pressure;Samples;Min_cycle;Max_cycle;Signal;HPM_P1;HPM_P2
2023/07/06 00:01:45;;;;;;;;;;;20.70;85.20;;;;;;5079682;28;19908;-88
2023/07/06 00:04:11;;;;;;;;;;;20.70;85.70;;;;;;5069177;28;19909;-87
2023/07/06 00:06:40;;;;;;;;;;;20.70;85.40;;;;;;5076464;28;19907;-86
2023/07/06 00:09:06;;;;;;;;;;;20.70;87.00;;;;;;5076787;28;19935;-86
2023/07/06 00:11:35;;;;;;;;;;;20.70;87.00;;;;;;5083780;28;20015;-82
2023/07/06 00:14:01;;;;;;;;;;;20.70;86.90;;;;;;5059334;28;20274;-82
2023/07/06 00:16:27;;;;;;;;;;;20.60;86.50;;;;;;5076644;28;19938;-85
2023/07/06 00:18:52;;;;;;;;;;;20.60;87.00;;;;;;5058302;28;19933;-82
2023/07/06 00:21:18;;;;;;;;;;;20.50;87.30;;;;;;5076475;28;19936;-83
2023/07/06 00:23:44;;;;;;;;;;;20.50;87.90;;;;;;5058246;28;19909;-82
2023/07/06 00:26:10;;;;;;;;;;;20.50;87.80;;;;;;5076103;28;19938;-84
2023/07/06 00:28:35;;;;;;;;;;;20.50;87.40;;;;;;5087769;28;19916;-83
2023/07/06 00:31:10;;;;;;;;;;;20.40;87.30;;;;;;5077885;28;19963;-84
2023/07/06 00:33:36;;;;;;;;;;;20.50;87.30;;;;;;5089635;28;19936;-83
2023/07/06 00:36:03;;;;;;;;;;;20.50;87.30;;;;;;5060975;28;20313;-80
2023/07/06 00:38:28;;;;;;;;;;;20.40;87.40;;;;;;5056828;28;19940;-80
2023/07/06 00:40:58;;;;;;;;;;;20.40;87.70;;;;;;5073371;28;19929;-79
2023/07/06 00:43:26;;;;;;;;;;;20.40;87.90;;;;;;5052987;28;19956;-80
2023/07/06 00:46:04;;;;;;;;;;;20.40;87.90;;;;;;5067102;28;20320;-79
2023/07/06 00:48:35;;;;;;;;;;;20.30;87.80;;;;;;5074612;28;19931;-78
2023/07/06 00:51:04;;;;;;;;;;;20.30;87.80;;;;;;5054101;28;19917;-79
2023/07/06 00:53:32;;;;;;;;;;;20.30;87.80;;;;;;5076408;28;19958;-79
2023/07/06 00:55:58;;;;;;;;;;;20.30;87.90;;;;;;5076432;28;19919;-80
2023/07/06 00:58:33;;;;;;;;;;;20.30;88.60;;;;;;5074598;28;20535;-79
2023/07/06 01:01:01;;;;;;;;;;;20.30;88.60;;;;;;5073911;28;20266;-80
2023/07/06 01:03:26;;;;;;;;;;;20.30;88.80;;;;;;5073784;28;19916;-81
2023/07/06 01:05:55;;;;;;;;;;;20.30;88.60;;;;;;5056687;28;20396;-81
2023/07/06 01:08:22;;;;;;;;;;;20.30;88.70;;;;;;5073674;28;20007;-80
2023/07/06 01:10:48;;;;;;;;;;;20.20;88.60;;;;;;5073592;28;20081;-81
2023/07/06 01:13:14;;;;;;;;;;;20.30;88.70;;;;;;5074053;28;19916;-80
2023/07/06 01:15:42;;;;;;;;;;;20.20;88.80;;;;;;5055656;28;19909;-80
2023/07/06 01:18:13;;;;;;;;;;;20.20;89.10;;;;;;5073719;28;19916;-80
2023/07/06 01:20:42;;;;;;;;;;;20.20;89.40;;;;;;5055329;28;20369;-81
2023/07/06 01:23:07;;;;;;;;;;;20.20;89.30;;;;;;5052224;28;19920;-80
2023/07/06 01:25:42;;;;;;;;;;;20.20;89.30;;;;;;5072286;28;19909;-81
2023/07/06 01:28:23;;;;;;;;;;;20.20;89.20;;;;;;5062726;28;19912;-79
2023/07/06 01:31:07;;;;;;;;;;;20.20;89.30;;;;;;5076382;28;20428;-80
2023/07/06 01:33:39;;;;;;;;;;;20.20;89.40;;;;;;5074803;28;19953;-80
2023/07/06 01:36:22;;;;;;;;;;;20.20;89.50;;;;;;5074670;28;19961;-80
2023/07/06 01:38:50;;;;;;;;;;;20.20;89.60;;;;;;5055742;28;19920;-80
2023/07/06 01:41:27;;;;;;;;;;;20.20;90.00;;;;;;5076081;28;20006;-78
2023/07/06 01:43:56;;;;;;;;;;;20.20;90.00;;;;;;5045613;28;19928;-81
2023/07/06 01:46:46;;;;;;;;;;;20.30;90.10;;;;;;5052154;28;19919;-82
2023/07/06 01:49:11;;;;;;;;;;;20.30;90.10;;;;;;5056444;28;20727;-80
2023/07/06 01:51:48;;;;;;;;;;;20.30;90.00;;;;;;5075013;28;19963;-80
2023/07/06 01:54:16;;;;;;;;;;;20.30;90.00;;;;;;5051381;28;19913;-79
2023/07/06 01:56:46;;;;;;;;;;;20.40;90.10;;;;;;5072167;28;19913;-80
2023/07/06 01:59:13;;;;;;;;;;;20.40;90.20;;;;;;5075339;28;20415;-80
2023/07/06 02:01:42;;;;;;;;;;;20.40;90.30;;;;;;5063670;28;19909;-80
2023/07/06 02:04:08;;;;;;;;;;;20.40;90.40;;;;;;5085197;28;19931;-78
2023/07/06 02:06:35;;;;;;;;;;;20.50;90.70;;;;;;5081999;28;19948;-79
2023/07/06 02:09:02;;;;;;;;;;;20.50;90.30;;;;;;5081891;28;19920;-81
2023/07/06 02:11:28;;;;;;;;;;;20.60;90.30;;;;;;5064710;28;19917;-80
2023/07/06 02:13:53;;;;;;;;;;;20.70;90.30;;;;;;5076809;28;19914;-80
2023/07/06 02:16:19;;;;;;;;;;;20.60;90.30;;;;;;5065993;28;19908;-81
2023/07/06 02:18:45;;;;;;;;;;;20.70;90.30;;;;;;5085743;28;19908;-79
2023/07/06 02:21:11;;;;;;;;;;;20.70;90.40;;;;;;5072911;28;19916;-79
2023/07/06 02:23:36;;;;;;;;;;;20.70;90.40;;;;;;5075701;28;20373;-80
2023/07/06 02:26:03;;;;;;;;;;;20.80;90.40;;;;;;5072134;28;19916;-79
2023/07/06 02:28:28;;;;;;;;;;;20.80;90.40;;;;;;5056680;28;19980;-80
2023/07/06 02:30:54;;;;;;;;;;;20.80;90.40;;;;;;5079439;28;20007;-80
2023/07/06 02:33:21;;;;;;;;;;;20.90;90.40;;;;;;5074882;28;19909;-80
2023/07/06 02:35:46;;;;;;;;;;;20.90;90.40;;;;;;5076788;28;19912;-80
2023/07/06 02:38:19;;;;;;;;;;;21.00;90.50;;;;;;5056471;28;19919;-79
2023/07/06 02:40:46;;;;;;;;;;;21.00;90.40;;;;;;5052039;28;19913;-79
2023/07/06 02:43:12;;;;;;;;;;;21.10;90.60;;;;;;5078697;28;19916;-82
2023/07/06 02:45:37;;;;;;;;;;;21.10;90.60;;;;;;5055474;28;19913;-81
2023/07/06 02:48:06;;;;;;;;;;;21.10;90.70;;;;;;5079363;28;19915;-80
2023/07/06 02:50:31;;;;;;;;;;;21.10;90.70;;;;;;5076707;28;20615;-79
2023/07/06 02:52:57;;;;;;;;;;;21.10;90.70;;;;;;5076700;28;19912;-78
2023/07/06 02:55:23;;;;;;;;;;;21.20;90.60;;;;;;5058572;28;20388;-80
2023/07/06 02:57:49;;;;;;;;;;;21.20;90.60;;;;;;5075639;28;19944;-79
2023/07/06 03:00:16;;;;;;;;;;;21.30;90.70;;;;;;5076312;28;19909;-80
2023/07/06 03:02:48;;;;;;;;;;;21.40;90.90;;;;;;5056374;28;19970;-81
2023/07/06 03:05:13;;;;;;;;;;;21.50;90.80;;;;;;5073869;28;19915;-78
2023/07/06 03:07:40;;;;;;;;;;;21.60;90.70;;;;;;5076018;28;20262;-80
2023/07/06 03:10:07;;;;;;;;;;;21.70;90.60;;;;;;5076567;28;19921;-79
2023/07/06 03:12:36;;;;;;;;;;;21.80;90.50;;;;;;5076498;28;19913;-79
2023/07/06 03:15:15;;;;;;;;;;;21.90;90.40;;;;;;5057695;28;19927;-80
2023/07/06 03:17:41;;;;;;;;;;;22.10;90.20;;;;;;5076338;28;19916;-80
2023/07/06 03:20:14;;;;;;;;;;;22.20;90.00;;;;;;5076156;28;19958;-81
2023/07/06 03:22:40;;;;;;;;;;;22.30;89.90;;;;;;5076039;28;20426;-80
2023/07/06 03:25:08;;;;;;;;;;;22.40;89.80;;;;;;5075841;28;19920;-80
2023/07/06 03:27:36;;;;;;;;;;;22.50;89.60;;;;;;5075642;28;19916;-79
2023/07/06 03:30:07;;;;;;;;;;;22.60;89.40;;;;;;5075420;28;19909;-80
2023/07/06 03:32:37;;;;;;;;;;;22.70;89.10;;;;;;5075530;28;19955;-79
2023/07/06 03:35:03;;;;;;;;;;;22.70;88.80;;;;;;5076144;28;20365;-78
2023/07/06 03:37:29;;;;;;;;;;;22.70;88.70;;;;;;5062061;28;19952;-79
2023/07/06 03:39:55;;;;;;;;;;;22.80;88.70;;;;;;5074655;28;20400;-80
2023/07/06 03:42:20;;;;;;;;;;;22.80;88.40;;;;;;5057126;28;20366;-79
2023/07/06 03:44:46;;;;;;;;;;;22.80;88.10;;;;;;5075280;28;19913;-79
2023/07/06 03:47:12;;;;;;;;;;;22.80;88.00;;;;;;5074028;28;19923;-80
2023/07/06 03:49:37;;;;;;;;;;;22.80;87.90;;;;;;5076608;28;19908;-79
2023/07/06 03:52:04;;;;;;;;;;;22.90;87.90;;;;;;5075171;28;20369;-80
2023/07/06 03:54:30;;;;;;;;;;;22.90;87.60;;;;;;5076541;28;19920;-80
2023/07/06 03:56:56;;;;;;;;;;;23.00;88.20;;;;;;5078074;28;20410;-80
2023/07/06 03:59:22;;;;;;;;;;;23.10;87.50;;;;;;5079518;28;20380;-80
2023/07/06 04:01:48;;;;;;;;;;;23.10;87.40;;;;;;5074783;28;19912;-79
2023/07/06 04:04:15;;;;;;;;;;;23.10;87.40;;;;;;5075575;28;19915;-79
2023/07/06 04:06:41;;;;;;;;;;;23.10;87.30;;;;;;5055432;28;19909;-80
2023/07/06 04:09:11;;;;;;;;;;;23.20;87.00;;;;;;5054040;28;19932;-81
2023/07/06 04:11:37;;;;;;;;;;;23.10;86.90;;;;;;5069702;28;19920;-80
2023/07/06 04:14:03;;;;;;;;;;;23.20;86.90;;;;;;5075079;28;20010;-79
2023/07/06 04:16:29;;;;;;;;;;;23.20;87.00;;;;;;5080201;28;20003;-80
2023/07/06 04:18:55;;;;;;;;;;;23.30;86.90;;;;;;5060303;28;19909;-78
2023/07/06 04:21:22;;;;;;;;;;;23.30;86.90;;;;;;5056160;28;19912;-81
2023/07/06 04:23:48;;;;;;;;;;;23.50;86.70;;;;;;5057548;28;19912;-79
2023/07/06 04:26:19;;;;;;;;;;;23.70;86.40;;;;;;5058314;28;19915;-79
2023/07/06 04:28:45;;;;;;;;;;;23.90;86.10;;;;;;5060581;28;20389;-77
2023/07/06 04:31:11;;;;;;;;;;;24.00;85.60;;;;;;5058495;28;19916;-80
2023/07/06 04:33:37;;;;;;;;;;;24.10;85.10;;;;;;5056793;28;19959;-80
2023/07/06 04:36:03;;;;;;;;;;;24.10;84.40;;;;;;5073939;28;19958;-80
2023/07/06 04:38:34;;;;;;;;;;;24.10;84.30;;;;;;5054004;28;19909;-79
2023/07/06 04:41:00;;;;;;;;;;;24.20;84.10;;;;;;5073155;28;19976;-78
2023/07/06 04:43:26;;;;;;;;;;;24.40;84.10;;;;;;5054543;28;19921;-79
2023/07/06 04:45:55;;;;;;;;;;;24.40;83.70;;;;;;5055187;28;19952;-80
2023/07/06 04:48:24;;;;;;;;;;;24.50;83.30;;;;;;5076475;28;20284;-79
2023/07/06 04:50:51;;;;;;;;;;;24.60;83.30;;;;;;5081783;28;19939;-80
2023/07/06 04:53:17;;;;;;;;;;;24.70;82.80;;;;;;5056225;28;19916;-81
2023/07/06 04:55:42;;;;;;;;;;;24.80;82.40;;;;;;5069110;28;19999;-80
2023/07/06 04:58:08;;;;;;;;;;;24.80;82.40;;;;;;5052020;28;19908;-79
2023/07/06 05:00:37;;;;;;;;;;;24.90;82.40;;;;;;5074354;28;19909;-81
2023/07/06 05:03:06;;;;;;;;;;;25.10;82.20;;;;;;5055934;28;19919;-80
2023/07/06 05:05:40;;;;;;;;;;;25.10;80.80;;;;;;5056013;28;19970;-80
2023/07/06 05:08:07;;;;;;;;;;;25.20;80.90;;;;;;5074026;28;19922;-79
2023/07/06 05:10:34;;;;;;;;;;;25.30;81.20;;;;;;5032575;28;20116;-79
2023/07/06 05:13:01;;;;;;;;;;;25.50;81.60;;;;;;5034258;28;20263;-80
2023/07/06 05:15:27;;;;;;;;;;;25.70;80.90;;;;;;5035531;28;20298;-79
2023/07/06 05:17:54;;;;;;;;;;;26.30;81.30;;;;;;5035582;28;19909;-79
2023/07/06 05:20:20;;;;;;;;;;;27.30;79.90;;;;;;5031163;28;19916;-81
2023/07/06 05:22:48;;;;;;;;;;;28.30;78.00;;;;;;5008875;28;20004;-80
2023/07/06 05:25:14;;;;;;;;;;;29.30;74.40;;;;;;5029459;28;19916;-81
2023/07/06 05:27:40;;;;;;;;;;;30.10;72.80;;;;;;5009749;28;19921;-80
2023/07/06 05:30:07;;;;;;;;;;;30.90;68.70;;;;;;5026670;28;20007;-80
2023/07/06 05:32:33;;;;;;;;;;;31.50;67.60;;;;;;5032758;28;20075;-80
2023/07/06 05:34:58;;;;;;;;;;;32.20;65.40;;;;;;5021337;28;20008;-78
2023/07/06 05:37:24;;;;;;;;;;;32.70;62.80;;;;;;5025604;28;19936;-79
2023/07/06 05:39:50;;;;;;;;;;;33.10;61.40;;;;;;5031219;28;20008;-79
2023/07/06 05:42:17;;;;;;;;;;;33.50;59.40;;;;;;5028952;28;20450;-77
2023/07/06 05:44:44;;;;;;;;;;;33.90;58.80;;;;;;5029927;28;19940;-78
2023/07/06 05:47:09;;;;;;;;;;;34.50;58.60;;;;;;5029537;28;19913;-79
2023/07/06 05:49:36;;;;;;;;;;;34.80;54.70;;;;;;5016216;28;19915;-78
2023/07/06 05:52:08;;;;;;;;;;;34.70;54.60;;;;;;5038723;28;19921;-79
2023/07/06 05:54:34;;;;;;;;;;;35.20;54.40;;;;;;5016005;28;19952;-79
2023/07/06 05:57:02;;;;;;;;;;;;;;;;;;4995721;28;19953;-80
2023/07/06 05:59:29;;;;;;;;;;;35.50;52.40;;;;;;5032283;28;19923;-78
2023/07/06 06:01:55;;;;;;;;;;;36.40;52.10;;;;;;5014564;28;20410;-79
2023/07/06 06:04:20;;;;;;;;;;;37.00;51.20;;;;;;5032304;28;19959;-80
2023/07/06 06:06:48;;;;;;;;;;;37.50;50.30;;;;;;5014879;28;19909;-78
2023/07/06 06:09:14;;;;;;;;;;;37.40;47.00;;;;;;5039268;28;19920;-78
2023/07/06 06:11:40;;;;;;;;;;;37.20;47.60;;;;;;5050181;28;19916;-78
2023/07/06 06:14:05;;;;;;;;;;;37.90;47.90;;;;;;5050643;28;20035;-77
2023/07/06 06:16:34;;;;;;;;;;;38.60;47.10;;;;;;5053305;28;19986;-77
2023/07/06 06:19:01;;;;;;;;;;;39.60;45.40;;;;;;5052470;28;20281;-79
2023/07/06 06:21:27;;;;;;;;;;;;;;;;;;5052177;28;19913;-80
2023/07/06 06:23:52;;;;;;;;;;;39.80;45.50;;;;;;5052524;28;19920;-79
2023/07/06 06:26:18;;;;;;;;;;;;;;;;;;5052043;28;19909;-78
2023/07/06 06:28:47;;;;;;;;;;;40.60;43.20;;;;;;5031694;28;19916;-80
2023/07/06 06:31:14;;;;;;;;;;;41.20;43.70;;;;;;5051097;28;19943;-83
2023/07/06 06:33:40;;;;;;;;;;;;;;;;;;5052717;28;19909;-78
2023/07/06 06:36:07;;;;;;;;;;;;;;;;;;5052200;28;19935;-80
2023/07/06 06:38:34;;;;;;;;;;;;;;;;;;5032889;28;19970;-79
2023/07/06 06:41:01;;;;;;;;;;;;;;;;;;5052277;28;19913;-79
2023/07/06 06:43:27;;;;;;;;;;;;;;;;;;5034622;28;20733;-80
2023/07/06 06:45:53;;;;;;;;;;;;;;;;;;5051053;28;19916;-80
2023/07/06 06:48:19;;;;;;;;;;;;;;;;;;5051929;28;19962;-80
2023/07/06 06:50:45;;;;;;;;;;;42.10;42.80;;;;;;5051876;28;19952;-79
2023/07/06 06:53:11;;;;;;;;;;;38.50;42.30;;;;;;5051842;28;19909;-79
2023/07/06 06:55:37;;;;;;;;;;;39.00;41.60;;;;;;5052021;28;20001;-80
2023/07/06 06:58:03;;;;;;;;;;;39.20;41.00;;;;;;5033948;28;19913;-80
2023/07/06 07:00:33;;;;;;;;;;;38.40;40.30;;;;;;5051831;28;19916;-80
2023/07/06 07:02:59;;;;;;;;;;;37.80;41.50;;;;;;5046588;28;20333;-79
2023/07/06 07:05:25;;;;;;;;;;;36.90;42.10;;;;;;5051150;28;19912;-78
2023/07/06 07:07:51;;;;;;;;;;;36.30;42.70;;;;;;5051930;28;19931;-79
2023/07/06 07:10:17;;;;;;;;;;;36.10;42.80;;;;;;5033637;28;19920;-80
2023/07/06 07:12:43;;;;;;;;;;;36.40;42.70;;;;;;5051753;28;20432;-79
2023/07/06 07:15:14;;;;;;;;;;;37.20;42.10;;;;;;5051237;28;19916;-81
2023/07/06 07:17:40;;;;;;;;;;;38.40;41.60;;;;;;5044608;28;19909;-79
2023/07/06 07:20:15;;;;;;;;;;;39.90;41.10;;;;;;5051414;28;19913;-79
2023/07/06 07:22:41;;;;;;;;;;;;;;;;;;5043009;28;19909;-78
2023/07/06 07:25:07;;;;;;;;;;;;;;;;;;5049108;28;19909;-78
2023/07/06 07:27:34;;;;;;;;;;;;;;;;;;5055478;28;20010;-79
2023/07/06 07:30:01;;;;;;;;;;;41.10;39.70;;;;;;5055486;28;19944;-77
2023/07/06 07:32:29;;;;;;;;;;;;;;;;;;5053083;28;19917;-79
2023/07/06 07:34:56;;;;;;;;;;;;;;;;;;5038444;28;19935;-78
2023/07/06 07:37:22;;;;;;;;;;;;;;;;;;5047366;28;20264;-79
2023/07/06 07:39:48;;;;;;;;;;;;;;;;;;5050609;28;19921;-79
2023/07/06 07:42:14;;;;;;;;;;;;;;;;;;5035185;28;20429;-79
2023/07/06 07:44:40;;;;;;;;;;;;;;;;;;5038710;28;19910;-81
2023/07/06 07:47:06;;;;;;;;;;;;;;;;;;5058112;28;19919;-77
2023/07/06 07:49:32;;;;;;;;;;;;;;;;;;5035303;28;19916;-80
2023/07/06 07:51:58;;;;;;;;;;;;;;;;;;5055105;28;20366;-80
2023/07/06 07:54:25;;;;;;;;;;;;;;;;;;5054606;28;19954;-79
2023/07/06 07:56:54;;;;;;;;;;;;;;;;;;5036605;28;19959;-80
2023/07/06 07:59:20;;;;;;;;;;;39.80;35.70;;;;;;5054605;28;19909;-79
2023/07/06 08:01:46;;;;;;;;;;;39.80;37.30;;;;;;5054624;28;19920;-79
2023/07/06 08:04:14;;;;;;;;;;;41.10;36.80;;;;;;5055401;28;19955;-78
2023/07/06 08:06:40;;;;;;;;;;;41.70;36.30;;;;;;5054889;28;19962;-78
2023/07/06 08:09:07;;;;;;;;;;;;;;;;;;5051662;28;19925;-80
2023/07/06 08:11:33;;;;;;;;;;;;;;;;;;5042683;28;19928;-78
2023/07/06 08:13:59;;;;;;;;;;;43.50;34.40;;;;;;5049741;28;19909;-80
2023/07/06 08:16:24;;;;;;;;;;;44.80;34.40;;;;;;5029061;28;19909;-79
2023/07/06 08:18:51;;;;;;;;;;;43.90;34.60;;;;;;5053993;28;19915;-79
2023/07/06 08:21:17;;;;;;;;;;;43.20;35.00;;;;;;5054102;28;19909;-80
2023/07/06 08:23:49;;;;;;;;;;;42.40;35.60;;;;;;5053415;28;19917;-79
2023/07/06 08:26:15;;;;;;;;;;;;;;;;;;5054104;28;20405;-79
2023/07/06 08:28:41;;;;;;;;;;;;;;;;;;5036261;28;20274;-80
2023/07/06 08:31:19;;;;;;;;;;;42.40;36.40;;;;;;5054969;28;19912;-78
2023/07/06 08:33:47;;;;;;;;;;;37.20;40.80;;;;;;5036466;28;20022;-78
2023/07/06 08:36:13;;;;;;;;;;;37.50;40.20;;;;;;5043493;28;19925;-80
2023/07/06 08:38:39;;;;;;;;;;;37.80;40.10;;;;;;5038726;28;20393;-79
2023/07/06 08:41:17;;;;;;;;;;;38.80;39.60;;;;;;5053375;28;19913;-78
2023/07/06 08:43:42;;;;;;;;;;;39.50;38.70;;;;;;5053959;28;19912;-79
2023/07/06 08:46:11;;;;;;;;;;;38.20;38.20;;;;;;5054587;28;20327;-79
2023/07/06 08:48:37;;;;;;;;;;;37.70;39.70;;;;;;5057365;28;19946;-79
2023/07/06 08:51:10;;;;;;;;;;;38.10;39.80;;;;;;5047823;28;19929;-79
2023/07/06 08:53:35;;;;;;;;;;;38.90;38.90;;;;;;5039964;28;19913;-79
2023/07/06 08:56:04;;;;;;;;;;;38.70;39.00;;;;;;5053988;28;20023;-80
2023/07/06 08:58:31;;;;;;;;;;;37.50;38.90;;;;;;5044467;28;20003;-78
2023/07/06 09:01:11;;;;;;;;;;;36.30;40.70;;;;;;5052428;28;19916;-78
2023/07/06 09:03:46;;;;;;;;;;;36.90;41.90;;;;;;5053542;28;20397;-80
2023/07/06 09:06:13;;;;;;;;;;;38.20;41.10;;;;;;5053856;28;19913;-77
2023/07/06 09:08:45;;;;;;;;;;;39.90;39.80;;;;;;5053351;28;19956;-78
2023/07/06 09:11:14;;;;;;;;;;;40.90;38.20;;;;;;5053715;28;19921;-79
2023/07/06 09:13:49;;;;;;;;;;;41.40;38.30;;;;;;5035433;28;19963;-79
2023/07/06 09:16:19;;;;;;;;;;;41.10;37.70;;;;;;5046107;28;20008;-79
2023/07/06 09:18:46;;;;;;;;;;;40.40;37.80;;;;;;5051006;28;19929;-78
2023/07/06 09:21:12;;;;;;;;;;;39.30;38.20;;;;;;5043313;28;19916;-78
2023/07/06 09:23:38;;;;;;;;;;;38.00;39.20;;;;;;5053934;28;19948;-78
2023/07/06 09:26:07;;;;;;;;;;;37.20;40.40;;;;;;5052198;28;20366;-78
2023/07/06 09:28:33;;;;;;;;;;;37.50;41.00;;;;;;5036110;28;19912;-78
2023/07/06 09:31:07;;;;;;;;;;;38.50;40.80;;;;;;5053685;28;19959;-78
2023/07/06 09:33:33;;;;;;;;;;;39.10;39.60;;;;;;5054228;28;19913;-82
2023/07/06 09:35:58;;;;;;;;;;;39.60;39.60;;;;;;5045645;28;19909;-78
2023/07/06 09:38:25;;;;;;;;;;;40.80;37.90;;;;;;5055207;28;19915;-78
2023/07/06 09:40:52;;;;;;;;;;;;;;;;;;5041055;28;20000;-79
2023/07/06 09:43:27;;;;;;;;;;;42.00;37.30;;;;;;5053533;28;20003;-79
2023/07/06 09:45:54;;;;;;;;;;;42.10;36.30;;;;;;5052321;28;19920;-79
2023/07/06 09:48:19;;;;;;;;;;;;;;;;;;5048122;28;20419;-78
2023/07/06 09:50:48;;;;;;;;;;;42.20;36.80;;;;;;5044916;28;19971;-77
2023/07/06 09:53:23;;;;;;;;;;;42.90;35.30;;;;;;5053158;28;20054;-81
2023/07/06 09:55:49;;;;;;;;;;;42.60;36.20;;;;;;5055151;28;19940;-79
2023/07/06 09:58:18;;;;;;;;;;;43.40;36.70;;;;;;5055650;28;20278;-78
2023/07/06 10:00:47;;;;;;;;;;;43.50;35.00;;;;;;5048261;28;19917;-79
2023/07/06 10:03:15;;;;;;;;;;;43.20;34.20;;;;;;5046233;28;19935;-79
2023/07/06 10:05:42;;;;;;;;;;;43.20;34.40;;;;;;5048189;28;19909;-81
2023/07/06 10:08:12;;;;;;;;;;;42.10;34.90;;;;;;5046242;28;19966;-78
2023/07/06 10:10:43;;;;;;;;;;;42.30;36.30;;;;;;5038745;28;19931;-78
2023/07/06 10:13:14;;;;;;;;;;;42.90;35.40;;;;;;5052310;28;19917;-78
2023/07/06 10:15:40;;;;;;;;;;;;;;;;;;5051821;28;19909;-80
2023/07/06 10:18:06;;;;;;;;;;;;;;;;;;5052730;28;19909;-78
2023/07/06 10:20:32;;;;;;;;;;;;;;;;;;5052323;28;19939;-79
2023/07/06 10:22:58;;;;;;;;;;;;;;;;;;5052470;28;20374;-79
2023/07/06 10:25:24;;;;;;;;;;;;;;;;;;5034417;28;20290;-80
2023/07/06 10:27:50;;;;;;;;;;;;;;;;;;5034458;28;19916;-80
2023/07/06 10:30:16;;;;;;;;;;;;;;;;;;5032752;28;19920;-78
2023/07/06 10:32:46;;;;;;;;;;;43.80;35.40;;;;;;5044217;28;19938;-79
2023/07/06 10:35:19;;;;;;;;;;;39.80;34.40;;;;;;5052079;28;19958;-80
2023/07/06 10:37:46;;;;;;;;;;;38.20;35.50;;;;;;5051863;28;19963;-78
2023/07/06 10:40:19;;;;;;;;;;;38.00;36.40;;;;;;5052267;28;19916;-78
2023/07/06 10:42:49;;;;;;;;;;;36.90;38.40;;;;;;5052165;28;20569;-82
2023/07/06 10:45:23;;;;;;;;;;;35.90;38.70;;;;;;5052308;28;19913;-79
2023/07/06 10:47:52;;;;;;;;;;;35.40;39.70;;;;;;5051574;28;19919;-79
2023/07/06 10:50:22;;;;;;;;;;;34.90;40.20;;;;;;5054138;28;19936;-78
2023/07/06 10:52:57;;;;;;;;;;;34.50;40.60;;;;;;5051078;28;19975;-78
2023/07/06 10:55:26;;;;;;;;;;;34.00;41.40;;;;;;5040238;28;19917;-79
2023/07/06 10:57:59;;;;;;;;;;;33.40;42.20;;;;;;5055175;28;19912;-78
2023/07/06 11:00:33;;;;;;;;;;;33.00;43.00;;;;;;5051029;28;19909;-79
2023/07/06 11:03:00;;;;;;;;;;;32.40;44.10;;;;;;5048706;28;19916;-80
2023/07/06 11:05:26;;;;;;;;;;;31.90;44.80;;;;;;5054294;28;20008;-79
2023/07/06 11:07:53;;;;;;;;;;;31.90;45.00;;;;;;5049571;28;20440;-78
2023/07/06 11:10:37;;;;;;;;;;;31.70;45.70;;;;;;5048448;28;20003;-79
2023/07/06 11:13:04;;;;;;;;;;;31.80;45.80;;;;;;5025844;28;19928;-78
2023/07/06 11:15:39;;;;;;;;;;;31.50;46.00;;;;;;5050879;28;19909;-79
2023/07/06 11:18:17;;;;;;;;;;;31.50;46.10;;;;;;5047579;28;19915;-78
2023/07/06 11:20:45;;;;;;;;;;;31.60;46.20;;;;;;5028489;28;19959;-78
2023/07/06 11:23:12;;;;;;;;;;;31.50;46.30;;;;;;5056127;28;20389;-79
2023/07/06 11:25:39;;;;;;;;;;;31.60;47.10;;;;;;5055619;28;19913;-78
2023/07/06 11:28:07;;;;;;;;;;;31.30;46.50;;;;;;5037984;28;19982;-78
2023/07/06 11:30:39;;;;;;;;;;;31.20;46.60;;;;;;5055527;28;19913;-78
2023/07/06 11:33:15;;;;;;;;;;;31.20;46.90;;;;;;5029483;28;19912;-78
2023/07/06 11:35:47;;;;;;;;;;;31.10;47.50;;;;;;5062469;28;19909;-80
2023/07/06 11:38:26;;;;;;;;;;;30.90;47.10;;;;;;5049023;28;20009;-79
2023/07/06 11:41:09;;;;;;;;;;;30.90;47.30;;;;;;5055818;28;19915;-77
2023/07/06 11:43:39;;;;;;;;;;;30.90;47.20;;;;;;5032581;28;19908;-78
2023/07/06 11:46:23;;;;;;;;;;;30.70;47.20;;;;;;5043501;28;20302;-79
2023/07/06 11:48:52;;;;;;;;;;;30.30;47.70;;;;;;5040258;28;19920;-78
2023/07/06 11:51:21;;;;;;;;;;;30.20;48.00;;;;;;5055010;28;20337;-80
2023/07/06 11:56:32;;;;;;;;;;;30.10;48.50;;;;;;5048911;28;19916;-77
2023/07/06 11:59:04;;;;;;;;;;;30.00;48.60;;;;;;5036707;28;19909;-78
2023/07/06 12:01:40;;;;;;;;;;;30.10;48.60;;;;;;5055002;28;19916;-79
2023/07/06 12:04:10;;;;;;;;;;;30.10;48.80;;;;;;5046673;28;19913;-78
2023/07/06 12:06:37;;;;;;;;;;;30.20;49.00;;;;;;5049722;28;19955;-78
2023/07/06 12:09:06;;;;;;;;;;;30.20;48.50;;;;;;5039174;28;19929;-80
2023/07/06 12:11:32;;;;;;;;;;;30.10;48.00;;;;;;5054473;28;20428;-78
2023/07/06 12:13:58;;;;;;;;;;;30.00;47.70;;;;;;5037456;28;19959;-79
2023/07/06 12:16:28;;;;;;;;;;;30.00;48.30;;;;;;5055987;28;19999;-79
2023/07/06 12:19:05;;;;;;;;;;;30.00;48.30;;;;;;5034096;28;20390;-80
2023/07/06 12:21:32;;;;;;;;;;;30.10;48.20;;;;;;5054890;28;20261;-79
2023/07/06 12:24:02;;;;;;;;;;;30.20;47.70;;;;;;5033235;28;19917;-78
2023/07/06 12:26:29;;;;;;;;;;;30.30;47.60;;;;;;5035881;28;20294;-79
2023/07/06 12:28:59;;;;;;;;;;;30.40;47.60;;;;;;5036407;28;19908;-77
2023/07/06 12:31:28;;;;;;;;;;;30.50;47.60;;;;;;5037696;28;19956;-78
2023/07/06 12:33:55;;;;;;;;;;;30.50;47.40;;;;;;5054140;28;20015;-78
2023/07/06 12:36:21;;;;;;;;;;;30.60;47.10;;;;;;5032495;28;20047;-79
2023/07/06 12:38:49;;;;;;;;;;;30.60;47.00;;;;;;5033032;28;20023;-79
2023/07/06 12:41:20;;;;;;;;;;;30.30;47.00;;;;;;5052729;28;20644;-79
2023/07/06 12:43:46;;;;;;;;;;;30.30;47.30;;;;;;5032850;28;19935;-79
2023/07/06 12:46:12;;;;;;;;;;;30.00;47.10;;;;;;5048796;28;19988;-79
2023/07/06 12:48:43;;;;;;;;;;;29.80;47.60;;;;;;5054051;28;19919;-78
2023/07/06 12:51:11;;;;;;;;;;;29.70;47.80;;;;;;5032644;28;20016;-79
2023/07/06 12:53:37;;;;;;;;;;;29.50;48.10;;;;;;5039965;28;19909;-80
2023/07/06 12:56:09;;;;;;;;;;;29.50;48.60;;;;;;5054819;28;19916;-79
2023/07/06 12:58:36;;;;;;;;;;;29.40;48.40;;;;;;5053008;28;20389;-79
2023/07/06 13:01:02;;;;;;;;;;;29.40;48.70;;;;;;5054340;28;19909;-77
2023/07/06 13:03:28;;;;;;;;;;;29.50;48.80;;;;;;5053559;28;20306;-80
2023/07/06 13:05:58;;;;;;;;;;;29.60;49.00;;;;;;5053354;28;20000;-79
2023/07/06 13:08:24;;;;;;;;;;;29.60;48.80;;;;;;5054039;28;20321;-81
2023/07/06 13:10:59;;;;;;;;;;;29.40;49.30;;;;;;5054081;28;19931;-81
2023/07/06 13:13:24;;;;;;;;;;;29.30;49.40;;;;;;5034668;28;20377;-79
2023/07/06 13:16:01;;;;;;;;;;;29.20;49.10;;;;;;5039020;28;19956;-79
2023/07/06 13:18:27;;;;;;;;;;;29.10;49.30;;;;;;5035548;28;20365;-79
2023/07/06 13:20:56;;;;;;;;;;;29.20;49.80;;;;;;5053584;28;19920;-79
2023/07/06 13:23:22;;;;;;;;;;;29.20;49.90;;;;;;5024227;28;19916;-79
2023/07/06 13:25:49;;;;;;;;;;;29.20;49.70;;;;;;5053678;28;19913;-79
2023/07/06 13:28:15;;;;;;;;;;;29.30;50.30;;;;;;5035639;28;20313;-79
2023/07/06 13:30:44;;;;;;;;;;;29.50;49.40;;;;;;5042803;28;20224;-80
2023/07/06 13:33:12;;;;;;;;;;;29.50;49.60;;;;;;5031783;28;20363;-79
2023/07/06 13:35:39;;;;;;;;;;;29.50;49.80;;;;;;5045807;28;19916;-80
2023/07/06 13:38:04;;;;;;;;;;;29.60;49.70;;;;;;5035394;28;20011;-80
2023/07/06 13:40:31;;;;;;;;;;;30.00;49.80;;;;;;5053038;28;19944;-79
2023/07/06 13:42:59;;;;;;;;;;;30.80;49.40;;;;;;5050420;28;20006;-79
2023/07/06 13:45:39;;;;;;;;;;;31.70;48.70;;;;;;5041476;28;20289;-81
2023/07/06 13:48:05;;;;;;;;;;;32.60;47.90;;;;;;5044871;28;19913;-79
2023/07/06 13:50:31;;;;;;;;;;;33.70;47.40;;;;;;5034806;28;19908;-79
2023/07/06 13:52:57;;;;;;;;;;;34.60;46.90;;;;;;5052494;28;19909;-78
2023/07/06 13:55:30;;;;;;;;;;;35.10;45.50;;;;;;5034873;28;19913;-79
2023/07/06 13:57:56;;;;;;;;;;;35.10;45.10;;;;;;5052476;28;19909;-79
2023/07/06 14:00:22;;;;;;;;;;;35.00;45.00;;;;;;5052348;28;19917;-79
2023/07/06 14:02:48;;;;;;;;;;;35.40;45.00;;;;;;5052337;28;20285;-79
2023/07/06 14:05:15;;;;;;;;;;;35.70;44.10;;;;;;5032034;28;20004;-80
2023/07/06 14:07:41;;;;;;;;;;;35.80;43.80;;;;;;5034880;28;19941;-79
2023/07/06 14:10:07;;;;;;;;;;;35.90;43.80;;;;;;5052198;28;20297;-80
2023/07/06 14:13:04;;;;;;;;;;;36.10;43.60;;;;;;5052163;28;19921;-79
2023/07/06 14:15:30;;;;;;;;;;;35.00;42.20;;;;;;5031246;28;19909;-79
2023/07/06 14:17:56;;;;;;;;;;;33.20;43.80;;;;;;5042812;28;19943;-78
2023/07/06 14:20:26;;;;;;;;;;;32.50;44.90;;;;;;5024384;28;19959;-79
2023/07/06 14:22:52;;;;;;;;;;;31.90;45.50;;;;;;5052607;28;20329;-79
2023/07/06 14:25:22;;;;;;;;;;;31.70;46.10;;;;;;5034614;28;19912;-79
2023/07/06 14:27:48;;;;;;;;;;;32.10;46.50;;;;;;5040386;28;19996;-79
2023/07/06 14:30:14;;;;;;;;;;;32.70;46.10;;;;;;5051931;28;20351;-79
2023/07/06 14:32:40;;;;;;;;;;;32.90;45.90;;;;;;5053134;28;19916;-79
2023/07/06 14:35:09;;;;;;;;;;;33.00;45.80;;;;;;5026059;28;19979;-79
2023/07/06 14:37:37;;;;;;;;;;;32.90;45.60;;;;;;5040998;28;20286;-77
2023/07/06 14:40:03;;;;;;;;;;;32.70;45.60;;;;;;5049933;28;19920;-78